首页
METAR-TAF:

METAR-TAF

机场 :

Roanoke Regional Airport (Woodrum Field)

羅阿諾克, 弗吉尼亚州, 美国

纬度: 37-19-01N, 经度: 079-58-27W, 海拔: 358米

当前天气观测

该预报发布于57分钟前的02:54 UTC
风速9节,风向
温度 10°C
湿度 37%
气压 1025 hPa
能見度: 16.1公里
多云层高于13000英尺

METAR: KROA 260254Z 35009KT 10SM BKN130 10/M04 A3027 RMK AO2 SLP251 T01001044 52019

时间: 22:51 (03:51 UTC)

预报

该预报发布于4小时和7分钟前的23:44 UTC
预报有效从26日的 00点(UTC)到 26日的 24点(UTC)
风速6节,风向
能見度: 10公里
天空无云
从 26日的 0700点(UTC)
风速5节,风向
能見度: 10公里
散云层高于9000英尺
阴天层高于12000英尺
从 26日的 1300点(UTC)
风速6节,风向
能見度: 10公里
阴天层高于5000英尺
从 26日的 1800点(UTC)
风速6节,风向东转东南
能見度: 6.4公里
阴天层高于1500英尺
小雨, 轻雾
从 26日的 2000点(UTC)
风速5节,风向
能見度: 3.2公里
阴天层高于700英尺
小雨, 轻雾

TAF: KROA 252344Z 2600/2624 35006KT P6SM SKC FM260700 01005KT P6SM SCT090 OVC120 FM261300 09006KT P6SM OVC050 FM261800 11006KT 4SM -RA BR OVC015 FM262000 10005KT 2SM -RA BR OVC007

超过4000个机场的气象观测和天气预报(METAR&TAF报告)。

可查询的气象台以黄色和红色小点在地图上表示。

将鼠标移到小点上方,可查看气象台名称。

然后点击查看天气观测和预报。

如需切换地图:点击带黑十字的绿色按钮放大地图;点击带横线的绿色按钮缩小地图;或者点击绿色箭头查看邻近地区的地图。


METAR-TAF: